Rouyn Noranda Airport
CYUY : now visible

Airfield :











YOU CAN JOIN US ON...

 
LOGIN :

Register | Disclaimer

   EN    FR    IT 

 









Legend :    VFR   Marginal VFR   IFR   Intensive IFR   Very Intensive IFR
Visi :
Ceiling :
>= 8 km
>= 3000ft
5 to 8 km
1000 to 3000 ft
1500m to 5 km
500 to 1000 ft
800 to 1500m
200 to 500 ft
< 800m
< 200 ft
Symbols :   Thunderstorms  Fog  Heavy snow  Heavy precipitations  Wind > 20 kt






- Airport Elevation : 988 ft
- IATA code : YUY


CYUY - Rouyn Noranda

CURRENT METAR :
  • 170200Z 26006KT 15SM -RA SCT024 OVC052 08/07 A2961 RMK SC3SC5 SLP036

EXPIRED METARs :
  • 170100Z 28006KT 15SM -RA FEW041 OVC085 08/07 A2960 RMK SC2AC6 SLP033
  • 170000Z 28006KT 15SM -RA FEW009 OVC035 08/08 A2959 RMK SF1SC7 SLP031

TAF AMD TAF CYUY
Valid from the 17 at 02:00 until the 17 at 12:00 UTC


170216Z 1702/1712 26006KT P6SM -SHRA SCT020 OVC050
TEMPO 1702/1706 5SM -SHRA BR SCT008 BKN020 BKN050 OVC080
PROB40 1702/1706 BKN008
FM170600 27008KT P6SM FEW080 BKN120
TEMPO 1706/1712 P6SM -SHRA BKN050 OVC080 RMK NXT FCST BY 170600Z
CZUL FIR / North America



MET'MAP, your aeronautical weather chart ! - Copyright ORBIFLY December 2007 - Disclaimer

ORBIFLY MET'MAP TEAM :

Programming & Development : Alexandra Zaïnal
Concept & original design : Baudouin d'Aumeries
Assistance for programming : Marc-Olivier Méhu
Technical & hardware support : Manuel Goepfert

Contact : metmap@orbifly.com




SOURCES & CREDITS :

   NOAA       Earth
Advisory